Time;durP1;ratioP1;P1;durP2;ratioP2;P2;SDS_P1;SDS_P2;PMS_P1;PMS_P2;Temp;Humidity;BMP_temperature;BMP_pressure;BME280_temperature;BME280_humidity;BME280_pressure;Samples;Min_cycle;Max_cycle;Signal;HPM_P1;HPM_P2
2021/07/08 00:01:06;;;;;;;7.13;2.42;;;18.90;96.60;;;;;;5097127;28;20031;-88
2021/07/08 00:03:32;;;;;;;6.03;2.90;;;18.80;96.60;;;;;;5094677;28;20170;-88
2021/07/08 00:05:58;;;;;;;3.90;2.13;;;18.70;96.30;;;;;;5095541;28;20067;-88
2021/07/08 00:08:24;;;;;;;4.03;2.05;;;18.70;96.50;;;;;;5095847;28;20024;-88
2021/07/08 00:10:52;;;;;;;4.82;2.70;;;18.70;96.60;;;;;;5099659;28;20035;-89
2021/07/08 00:13:23;;;;;;;4.38;2.53;;;18.70;96.70;;;;;;5096905;28;20028;-88
2021/07/08 00:15:51;;;;;;;4.18;2.38;;;18.70;96.60;;;;;;5094089;28;20037;-89
2021/07/08 00:18:17;;;;;;;4.25;2.47;;;18.70;96.60;;;;;;5095313;28;20020;-89
2021/07/08 00:20:46;;;;;;;4.20;2.45;;;18.70;96.70;;;;;;5093433;28;20030;-88
2021/07/08 00:23:12;;;;;;;5.03;2.40;;;18.60;97.00;;;;;;5093995;28;20051;-89
2021/07/08 00:25:38;;;;;;;5.65;2.45;;;18.60;96.70;;;;;;5093986;28;20039;-87
2021/07/08 00:28:07;;;;;;;6.05;2.50;;;18.60;96.80;;;;;;5093923;28;20389;-88
2021/07/08 00:30:33;;;;;;;4.97;2.70;;;18.60;96.80;;;;;;5094556;28;20027;-88
2021/07/08 00:32:58;;;;;;;5.88;2.50;;;18.50;96.80;;;;;;5094933;28;20032;-89
2021/07/08 00:35:24;;;;;;;4.47;2.25;;;18.50;97.00;;;;;;5093742;28;20511;-90
2021/07/08 00:37:51;;;;;;;5.10;2.65;;;18.50;97.10;;;;;;5094005;28;20170;-88
2021/07/08 00:40:17;;;;;;;6.35;2.75;;;18.50;97.10;;;;;;5093221;28;20016;-88
2021/07/08 00:42:43;;;;;;;7.70;2.88;;;18.40;97.10;;;;;;5094807;28;20384;-88
2021/07/08 00:45:12;;;;;;;5.75;2.72;;;18.50;97.10;;;;;;5093498;28;20030;-87
2021/07/08 00:47:38;;;;;;;4.53;2.70;;;18.50;97.20;;;;;;5093387;28;20102;-88
2021/07/08 00:50:06;;;;;;;5.05;2.70;;;18.50;97.20;;;;;;5092975;28;20046;-88
2021/07/08 00:52:32;;;;;;;8.77;3.15;;;18.50;97.30;;;;;;5093328;28;20032;-87
2021/07/08 00:54:57;;;;;;;5.93;2.47;;;18.50;97.50;;;;;;5094437;28;20031;-88
2021/07/08 00:57:23;;;;;;;4.47;2.58;;;18.60;97.20;;;;;;5093260;28;20534;-87
2021/07/08 00:59:52;;;;;;;5.13;2.72;;;18.60;97.10;;;;;;5092787;28;20028;-86
2021/07/08 01:02:18;;;;;;;8.35;2.90;;;18.60;97.10;;;;;;5093177;28;20058;-88
2021/07/08 01:04:45;;;;;;;5.10;2.47;;;18.60;97.00;;;;;;5094458;28;20462;-86
2021/07/08 01:07:12;;;;;;;5.45;2.50;;;18.60;97.00;;;;;;5095141;28;20064;-86
2021/07/08 01:09:39;;;;;;;6.35;2.50;;;18.60;97.10;;;;;;5092325;28;20032;-86
2021/07/08 01:12:06;;;;;;;4.68;2.60;;;18.60;97.10;;;;;;5094039;28;20392;-87
2021/07/08 01:14:32;;;;;;;5.57;2.40;;;18.60;97.10;;;;;;5094543;28;20059;-86
2021/07/08 01:16:58;;;;;;;5.28;2.50;;;18.60;97.10;;;;;;5092470;28;20036;-86
2021/07/08 01:19:24;;;;;;;4.78;2.80;;;18.60;97.40;;;;;;5093287;28;20103;-86
2021/07/08 01:21:50;;;;;;;8.57;2.80;;;18.60;97.10;;;;;;5093409;28;20020;-87
2021/07/08 01:24:16;;;;;;;5.45;2.80;;;18.60;97.40;;;;;;5093366;28;20024;-86
2021/07/08 01:26:41;;;;;;;4.78;2.33;;;18.60;97.20;;;;;;5093393;28;20067;-87
2021/07/08 01:29:08;;;;;;;5.32;2.60;;;18.60;97.20;;;;;;5093321;28;20107;-87
2021/07/08 01:31:33;;;;;;;4.82;2.83;;;18.60;97.60;;;;;;5092775;28;20383;-87
2021/07/08 01:33:59;;;;;;;6.18;3.10;;;18.70;97.60;;;;;;5092439;28;20180;-87
2021/07/08 01:36:25;;;;;;;3.80;2.20;;;18.70;97.30;;;;;;5094140;28;20040;-86
2021/07/08 01:38:51;;;;;;;4.82;2.53;;;18.60;97.40;;;;;;5092123;28;20035;-86
2021/07/08 01:41:17;;;;;;;4.25;2.60;;;18.70;97.40;;;;;;5092000;28;20024;-86
2021/07/08 01:43:44;;;;;;;4.47;2.60;;;18.60;97.50;;;;;;5092322;28;20030;-87
2021/07/08 01:46:12;;;;;;;7.18;3.25;;;18.60;97.40;;;;;;5092041;28;20024;-86
2021/07/08 01:48:38;;;;;;;5.60;2.92;;;18.70;97.50;;;;;;5092339;28;20491;-87
2021/07/08 01:51:13;;;;;;;5.75;2.97;;;18.70;97.50;;;;;;5091503;28;20477;-86
2021/07/08 01:53:38;;;;;;;6.00;2.80;;;18.60;97.60;;;;;;5092100;28;20122;-87
2021/07/08 01:56:04;;;;;;;6.50;2.90;;;18.70;97.60;;;;;;5091885;28;20126;-86
2021/07/08 01:58:30;;;;;;;4.57;2.70;;;18.70;97.70;;;;;;5093208;28;20107;-88
2021/07/08 02:00:55;;;;;;;5.50;2.78;;;18.60;97.70;;;;;;5092524;28;20108;-87
2021/07/08 02:03:21;;;;;;;6.97;2.97;;;18.50;97.80;;;;;;5093051;28;20063;-87
2021/07/08 02:05:47;;;;;;;6.97;2.63;;;18.50;97.80;;;;;;5091636;28;20123;-86
2021/07/08 02:08:12;;;;;;;4.57;2.60;;;18.50;97.90;;;;;;5091923;28;20032;-86
2021/07/08 02:10:39;;;;;;;6.45;2.70;;;18.40;98.00;;;;;;5091496;28;20356;-86
2021/07/08 02:13:05;;;;;;;6.43;2.55;;;18.40;98.10;;;;;;5091572;28;20028;-86
2021/07/08 02:15:31;;;;;;;7.68;2.72;;;18.40;98.20;;;;;;5092752;28;20085;-86
2021/07/08 02:17:56;;;;;;;9.32;2.97;;;18.40;98.30;;;;;;5091903;28;20023;-86
2021/07/08 02:20:22;;;;;;;5.75;2.70;;;18.30;98.40;;;;;;5090000;28;20031;-87
2021/07/08 02:22:48;;;;;;;8.05;3.00;;;18.30;98.40;;;;;;5091525;28;20028;-86
2021/07/08 02:25:14;;;;;;;6.05;3.25;;;18.20;98.40;;;;;;5091386;28;20035;-86
2021/07/08 02:27:41;;;;;;;6.28;2.65;;;18.20;98.20;;;;;;5091388;28;20028;-87
2021/07/08 02:30:09;;;;;;;6.88;2.90;;;18.20;98.20;;;;;;5090803;28;20035;-87
2021/07/08 02:32:35;;;;;;;5.35;2.42;;;18.10;98.30;;;;;;5090787;28;20032;-86
2021/07/08 02:35:01;;;;;;;6.38;3.20;;;18.10;98.30;;;;;;5091305;28;20480;-86
2021/07/08 02:37:27;;;;;;;4.00;2.50;;;18.10;98.30;;;;;;5091164;28;20058;-86
2021/07/08 02:39:52;;;;;;;6.15;2.80;;;18.00;98.20;;;;;;5090736;28;20028;-87
2021/07/08 02:42:18;;;;;;;8.90;3.45;;;18.00;98.20;;;;;;5092357;28;20028;-86
2021/07/08 02:44:44;;;;;;;6.72;2.80;;;18.00;98.20;;;;;;5092437;28;20027;-87
2021/07/08 02:47:09;;;;;;;5.45;2.97;;;18.00;98.20;;;;;;5092271;28;20028;-87
2021/07/08 02:49:35;;;;;;;5.85;3.30;;;17.90;98.60;;;;;;5091867;28;20042;-86
2021/07/08 02:52:00;;;;;;;7.20;3.33;;;17.90;98.40;;;;;;5092308;28;20028;-87
2021/07/08 02:54:26;;;;;;;7.78;3.47;;;17.90;98.40;;;;;;5092366;28;20078;-86
2021/07/08 02:56:52;;;;;;;5.95;3.25;;;17.90;98.50;;;;;;5090961;28;20036;-86
2021/07/08 02:59:17;;;;;;;5.85;3.03;;;17.90;98.60;;;;;;5090302;28;20032;-86
2021/07/08 03:01:43;;;;;;;5.93;3.10;;;17.90;98.60;;;;;;5092196;28;20468;-86
2021/07/08 03:04:08;;;;;;;9.68;3.78;;;17.90;98.70;;;;;;5091122;28;20031;-86
2021/07/08 03:06:34;;;;;;;5.78;2.90;;;17.90;99.00;;;;;;5090910;28;20040;-86
2021/07/08 03:09:00;;;;;;;5.22;2.92;;;17.80;98.70;;;;;;5090323;28;20039;-86
2021/07/08 03:11:26;;;;;;;5.97;2.58;;;17.80;98.70;;;;;;5090717;28;20051;-87
2021/07/08 03:13:51;;;;;;;5.90;3.03;;;17.90;98.70;;;;;;5092097;28;20035;-87
2021/07/08 03:16:17;;;;;;;6.07;3.08;;;17.80;98.80;;;;;;5090659;28;20023;-86
2021/07/08 03:18:43;;;;;;;7.20;3.40;;;17.80;98.70;;;;;;5092127;28;20024;-86
2021/07/08 03:21:08;;;;;;;6.22;2.90;;;17.80;98.80;;;;;;5090063;28;20122;-86
2021/07/08 03:23:35;;;;;;;5.30;3.33;;;17.80;99.10;;;;;;5090668;28;20031;-87
2021/07/08 03:26:02;;;;;;;6.05;3.03;;;17.70;98.80;;;;;;5090636;28;20020;-86
2021/07/08 03:28:28;;;;;;;9.25;3.28;;;17.70;98.80;;;;;;5090646;28;20480;-88
2021/07/08 03:30:54;;;;;;;5.22;3.03;;;17.70;98.90;;;;;;5091417;28;20398;-87
2021/07/08 03:33:19;;;;;;;9.05;3.03;;;17.70;98.80;;;;;;5090594;28;20024;-87
2021/07/08 03:35:45;;;;;;;7.65;3.13;;;17.70;98.80;;;;;;5090444;28;20119;-87
2021/07/08 03:38:11;;;;;;;6.53;3.35;;;17.70;98.80;;;;;;5091828;28;20063;-86
2021/07/08 03:40:37;;;;;;;5.05;2.85;;;17.70;98.90;;;;;;5089995;28;20436;-87
2021/07/08 03:43:04;;;;;;;8.90;3.53;;;17.60;98.90;;;;;;5094184;28;20119;-86
2021/07/08 03:45:29;;;;;;;6.10;2.95;;;17.60;99.00;;;;;;5094395;28;20119;-86
2021/07/08 03:47:55;;;;;;;6.75;3.15;;;17.50;99.30;;;;;;5095582;28;20102;-86
2021/07/08 03:50:22;;;;;;;5.90;3.50;;;17.50;99.10;;;;;;5095275;28;20024;-86
2021/07/08 03:52:48;;;;;;;4.82;2.85;;;17.50;99.20;;;;;;5094538;28;20085;-86
2021/07/08 03:55:19;;;;;;;5.07;3.08;;;17.50;99.30;;;;;;5095357;28;20028;-86
2021/07/08 03:57:53;;;;;;;6.07;2.97;;;17.50;99.20;;;;;;5094542;28;20426;-87
2021/07/08 04:00:34;;;;;;;6.93;3.42;;;17.50;99.30;;;;;;5093661;28;20027;-86
2021/07/08 04:03:03;;;;;;;5.13;2.85;;;17.50;99.20;;;;;;5094153;28;20100;-86
2021/07/08 04:05:29;;;;;;;7.05;3.22;;;17.50;99.30;;;;;;5094043;28;20036;-86
2021/07/08 04:07:55;;;;;;;5.20;3.33;;;17.50;99.30;;;;;;5094118;28;20086;-86
2021/07/08 04:10:21;;;;;;;5.82;2.92;;;17.50;99.20;;;;;;5093481;28;20041;-86
2021/07/08 04:12:46;;;;;;;6.05;3.22;;;17.40;99.20;;;;;;5095102;28;20035;-86
2021/07/08 04:15:13;;;;;;;5.93;2.80;;;17.40;99.20;;;;;;5095092;28;20035;-86
2021/07/08 04:17:38;;;;;;;4.68;3.13;;;17.40;99.30;;;;;;5094094;28;20556;-87
2021/07/08 04:20:07;;;;;;;8.02;3.13;;;17.40;99.40;;;;;;5093287;28;20024;-86
2021/07/08 04:22:33;;;;;;;8.35;3.33;;;17.40;99.50;;;;;;5093706;28;20020;-86
2021/07/08 04:24:59;;;;;;;7.88;3.38;;;17.40;99.50;;;;;;5093777;28;20024;-86
2021/07/08 04:27:26;;;;;;;11.10;3.67;;;17.40;99.50;;;;;;5093643;28;20024;-86
2021/07/08 04:29:52;;;;;;;5.68;3.78;;;17.50;99.60;;;;;;5093149;28;20052;-87
2021/07/08 04:32:18;;;;;;;5.80;2.92;;;17.50;99.50;;;;;;5093575;28;20113;-85
2021/07/08 04:34:43;;;;;;;6.18;3.17;;;17.60;99.50;;;;;;5093610;28;20024;-86
2021/07/08 04:37:09;;;;;;;8.10;3.38;;;17.60;99.50;;;;;;5093479;28;20024;-86
2021/07/08 04:39:35;;;;;;;6.57;3.50;;;17.60;99.30;;;;;;5093121;28;20564;-86
2021/07/08 04:42:00;;;;;;;10.35;3.40;;;17.70;99.20;;;;;;5093447;28;20032;-86
2021/07/08 04:44:26;;;;;;;6.50;3.80;;;17.70;99.20;;;;;;5093481;28;20024;-86
2021/07/08 04:46:51;;;;;;;9.48;3.90;;;17.70;99.20;;;;;;5093405;28;20024;-86
2021/07/08 04:49:17;;;;;;;6.18;3.75;;;17.70;99.30;;;;;;5094001;28;20028;-86
2021/07/08 04:51:43;;;;;;;7.57;4.00;;;17.80;99.30;;;;;;5093376;28;20028;-86
2021/07/08 04:54:08;;;;;;;6.60;3.33;;;17.80;99.30;;;;;;5092633;28;20032;-86
2021/07/08 04:56:34;;;;;;;6.28;3.70;;;17.80;99.30;;;;;;5094311;28;20024;-86
2021/07/08 04:59:00;;;;;;;9.32;4.03;;;17.90;99.30;;;;;;5093945;28;20046;-86
2021/07/08 05:01:25;;;;;;;7.30;3.58;;;17.90;99.30;;;;;;5093078;28;20024;-86
2021/07/08 05:03:51;;;;;;;7.78;3.38;;;18.00;99.30;;;;;;5093137;28;20016;-86
2021/07/08 05:06:16;;;;;;;5.45;3.63;;;18.00;99.30;;;;;;5092921;28;20122;-86
2021/07/08 05:08:42;;;;;;;7.03;3.85;;;18.00;99.30;;;;;;5093255;28;20027;-87
2021/07/08 05:11:08;;;;;;;6.55;3.58;;;18.00;99.30;;;;;;5092427;28;20500;-86
2021/07/08 05:13:34;;;;;;;7.95;3.50;;;18.10;99.40;;;;;;5093147;28;20035;-86
2021/07/08 05:16:00;;;;;;;9.13;3.97;;;18.10;99.40;;;;;;5092865;28;20028;-86
2021/07/08 05:18:25;;;;;;;8.75;3.65;;;18.10;99.40;;;;;;5093026;28;20035;-86
2021/07/08 05:20:51;;;;;;;8.32;3.78;;;18.20;99.50;;;;;;5082737;22;20045;-85
2021/07/08 05:23:19;;;;;;;7.53;3.70;;;18.20;99.50;;;;;;5053668;28;20562;-85
2021/07/08 05:25:45;;;;;;;7.53;3.75;;;18.20;99.50;;;;;;5053727;28;20020;-85
2021/07/08 05:28:12;;;;;;;8.27;3.78;;;18.20;99.50;;;;;;5052577;28;20261;-85
2021/07/08 05:30:39;;;;;;;7.95;4.10;;;18.30;99.80;;;;;;5068506;28;20048;-85
2021/07/08 05:33:04;;;;;;;7.32;3.85;;;18.30;99.50;;;;;;5089234;28;20029;-85
2021/07/08 05:35:30;;;;;;;7.13;3.63;;;18.30;99.60;;;;;;5089092;28;20549;-85
2021/07/08 05:37:56;;;;;;;11.10;4.43;;;18.30;99.10;;;;;;5089148;28;20035;-85
2021/07/08 05:40:22;;;;;;;8.50;4.20;;;18.40;99.00;;;;;;5088354;28;20075;-85
2021/07/08 05:42:48;;;;;;;8.38;3.85;;;18.40;98.90;;;;;;5088847;28;20028;-85
2021/07/08 05:45:13;;;;;;;8.65;4.10;;;18.40;99.10;;;;;;5073336;28;20021;-85
2021/07/08 05:47:39;;;;;;;8.77;4.03;;;18.40;98.80;;;;;;5071979;28;20031;-86
2021/07/08 05:50:05;;;;;;;7.50;4.03;;;18.50;98.80;;;;;;5071242;28;20135;-85
2021/07/08 05:52:31;;;;;;;7.43;4.00;;;18.50;98.80;;;;;;5072959;28;20480;-85
2021/07/08 05:54:57;;;;;;;6.65;4.20;;;18.60;98.80;;;;;;5088686;28;20048;-85
2021/07/08 05:57:23;;;;;;;9.85;4.18;;;18.60;98.70;;;;;;5071702;28;20036;-85
2021/07/08 05:59:48;;;;;;;9.00;4.10;;;18.60;98.60;;;;;;5071294;28;20025;-85
2021/07/08 06:02:14;;;;;;;8.65;4.10;;;18.70;98.60;;;;;;5088512;28;20017;-85
2021/07/08 06:04:40;;;;;;;9.27;4.47;;;18.70;98.50;;;;;;5071615;28;20024;-85
2021/07/08 06:07:06;;;;;;;7.07;3.63;;;18.70;98.50;;;;;;5087505;28;20409;-85
2021/07/08 06:09:32;;;;;;;8.20;4.47;;;18.80;98.50;;;;;;5087949;28;20120;-85
2021/07/08 06:11:58;;;;;;;6.60;3.85;;;18.80;98.60;;;;;;5088392;28;20040;-85
2021/07/08 06:14:24;;;;;;;7.93;4.00;;;18.80;98.60;;;;;;5072868;28;20113;-85
2021/07/08 06:16:49;;;;;;;6.40;3.72;;;18.90;98.60;;;;;;5072552;28;20056;-85
2021/07/08 06:19:15;;;;;;;9.25;3.70;;;18.90;98.60;;;;;;5087435;28;20028;-85
2021/07/08 06:21:41;;;;;;;9.55;4.20;;;18.90;98.50;;;;;;5088228;28;20032;-85
2021/07/08 06:24:08;;;;;;;9.45;4.30;;;19.00;98.70;;;;;;5088271;28;20048;-85
2021/07/08 06:26:34;;;;;;;8.43;4.18;;;19.00;98.30;;;;;;5072797;28;20060;-85
2021/07/08 06:29:00;;;;;;;9.23;4.32;;;19.00;98.40;;;;;;5071789;28;20016;-85
2021/07/08 06:31:26;;;;;;;9.45;4.90;;;19.00;98.30;;;;;;5088195;28;20450;-86
2021/07/08 06:33:52;;;;;;;11.43;5.13;;;19.10;98.40;;;;;;5088152;28;20021;-86
2021/07/08 06:36:17;;;;;;;12.20;5.55;;;19.10;98.20;;;;;;5070998;28;20455;-85
2021/07/08 06:38:43;;;;;;;9.18;4.35;;;19.20;98.20;;;;;;5087946;28;20115;-85
2021/07/08 06:41:09;;;;;;;10.88;4.97;;;19.20;98.10;;;;;;5071460;28;20020;-84
2021/07/08 06:43:34;;;;;;;21.17;6.00;;;19.20;98.20;;;;;;5087918;28;20024;-85
2021/07/08 06:46:00;;;;;;;10.43;5.13;;;19.20;98.20;;;;;;5072288;28;20081;-85
2021/07/08 06:48:25;;;;;;;12.60;5.40;;;19.30;98.30;;;;;;5072135;28;20021;-85
2021/07/08 06:50:51;;;;;;;11.40;5.03;;;19.30;98.00;;;;;;5087140;28;20025;-85
2021/07/08 06:53:17;;;;;;;9.85;5.03;;;19.30;98.20;;;;;;5087564;28;20124;-85
2021/07/08 06:55:42;;;;;;;10.85;4.93;;;19.30;97.90;;;;;;5087627;28;20070;-85
2021/07/08 06:58:10;;;;;;;9.40;4.28;;;19.30;97.90;;;;;;5087616;28;20392;-85
2021/07/08 07:00:38;;;;;;;8.68;4.70;;;19.40;97.80;;;;;;5070042;28;20103;-85
2021/07/08 07:03:05;;;;;;;9.25;4.53;;;19.40;97.60;;;;;;5087463;28;20075;-85
2021/07/08 07:05:31;;;;;;;8.27;4.25;;;19.50;97.60;;;;;;5071917;28;20021;-85
2021/07/08 07:07:57;;;;;;;9.48;5.10;;;19.50;97.50;;;;;;5087631;28;20024;-86
2021/07/08 07:10:24;;;;;;;8.68;4.30;;;19.50;97.50;;;;;;5086853;28;20025;-85
2021/07/08 07:12:51;;;;;;;6.82;4.13;;;19.60;97.40;;;;;;5087436;28;20050;-85
2021/07/08 07:15:20;;;;;;;9.52;4.35;;;19.60;97.40;;;;;;5071747;28;20104;-85
2021/07/08 07:17:48;;;;;;;9.95;4.45;;;19.70;97.30;;;;;;5087256;28;20020;-85
2021/07/08 07:20:16;;;;;;;12.90;4.78;;;19.70;97.10;;;;;;5071125;28;20035;-84
2021/07/08 07:22:45;;;;;;;9.47;4.23;;;19.80;96.50;;;;;;5087306;28;20020;-86
2021/07/08 07:25:12;;;;;;;9.85;4.32;;;19.90;96.40;;;;;;5087427;28;20027;-85
2021/07/08 07:27:38;;;;;;;7.55;3.70;;;19.90;96.40;;;;;;5070510;28;20029;-85
2021/07/08 07:30:05;;;;;;;6.25;3.80;;;20.00;96.60;;;;;;5070945;28;20048;-85
2021/07/08 07:32:35;;;;;;;6.32;3.65;;;20.00;96.30;;;;;;5071719;28;20021;-86
2021/07/08 07:35:01;;;;;;;6.70;3.60;;;20.10;96.40;;;;;;5070533;28;20495;-85
2021/07/08 07:37:27;;;;;;;6.60;3.47;;;20.10;96.40;;;;;;5087101;28;20435;-85
2021/07/08 07:39:53;;;;;;;10.20;3.80;;;20.10;96.40;;;;;;5086539;28;20032;-85
2021/07/08 07:42:19;;;;;;;6.53;3.80;;;20.20;96.30;;;;;;5087089;28;20024;-85
2021/07/08 07:44:47;;;;;;;8.55;3.85;;;20.20;96.30;;;;;;5087209;28;20024;-85
2021/07/08 07:47:16;;;;;;;10.40;4.25;;;20.30;96.20;;;;;;5087274;28;20024;-85
2021/07/08 07:49:42;;;;;;;9.48;4.20;;;20.30;96.20;;;;;;5071027;28;20029;-86
2021/07/08 07:52:12;;;;;;;8.27;3.78;;;20.40;96.00;;;;;;5087213;28;20481;-86
2021/07/08 07:54:38;;;;;;;8.27;3.53;;;20.40;95.50;;;;;;5070273;28;20401;-85
2021/07/08 07:57:05;;;;;;;7.32;3.45;;;20.40;95.30;;;;;;5070423;28;20029;-85
2021/07/08 07:59:35;;;;;;;7.43;3.90;;;20.40;95.50;;;;;;5086309;28;20025;-85
2021/07/08 08:02:03;;;;;;;9.20;4.25;;;20.40;95.50;;;;;;5087027;28;20020;-86
2021/07/08 08:04:31;;;;;;;6.97;3.90;;;20.50;95.60;;;;;;5087434;28;20077;-85
2021/07/08 08:09:42;;;;;;;7.88;4.15;;;20.50;95.70;;;;;;5070948;28;20036;-85
2021/07/08 08:12:08;;;;;;;8.63;3.97;;;20.50;95.80;;;;;;5086798;28;20020;-85
2021/07/08 08:14:34;;;;;;;8.00;3.90;;;20.50;95.80;;;;;;5086840;28;20055;-85
2021/07/08 08:17:00;;;;;;;8.02;3.92;;;20.60;95.60;;;;;;5087006;28;20489;-85
2021/07/08 08:19:26;;;;;;;7.22;3.63;;;20.60;95.50;;;;;;5070729;28;20035;-85
2021/07/08 08:21:52;;;;;;;8.43;3.72;;;20.60;95.60;;;;;;5086687;28;20028;-85
2021/07/08 08:24:18;;;;;;;7.38;3.55;;;20.70;95.30;;;;;;5069926;28;20120;-85
2021/07/08 08:26:43;;;;;;;10.40;4.75;;;20.80;95.30;;;;;;5069973;28;20060;-84
2021/07/08 08:29:09;;;;;;;9.38;4.40;;;20.80;95.20;;;;;;5086619;28;20074;-85
2021/07/08 08:31:37;;;;;;;7.68;3.90;;;20.90;95.10;;;;;;5090334;28;20669;-86
2021/07/08 08:34:03;;;;;;;11.88;4.70;;;21.00;95.10;;;;;;5074682;28;20274;-86
2021/07/08 08:36:29;;;;;;;8.32;4.32;;;21.00;95.00;;;;;;5074516;28;20035;-86
2021/07/08 08:38:54;;;;;;;12.20;4.53;;;21.10;95.10;;;;;;5089549;28;20546;-85
2021/07/08 08:41:20;;;;;;;9.38;4.63;;;21.10;94.90;;;;;;5090091;28;20424;-86
2021/07/08 08:43:45;;;;;;;8.25;4.05;;;21.20;94.60;;;;;;5073190;28;20024;-85
2021/07/08 08:46:12;;;;;;;10.15;4.88;;;21.20;94.80;;;;;;5090012;28;20174;-85
2021/07/08 08:48:38;;;;;;;12.13;4.80;;;21.20;94.90;;;;;;5074420;28;20029;-85
2021/07/08 08:51:04;;;;;;;13.40;4.47;;;21.30;95.10;;;;;;5073783;28;20024;-85
2021/07/08 08:53:30;;;;;;;10.68;3.90;;;21.30;94.60;;;;;;5073058;28;20142;-85
2021/07/08 08:55:56;;;;;;;7.72;3.90;;;21.30;94.60;;;;;;5089844;28;20501;-85
2021/07/08 08:58:22;;;;;;;11.98;4.28;;;21.30;94.40;;;;;;5089817;28;20028;-85
2021/07/08 09:00:54;;;;;;;8.15;3.55;;;21.20;94.20;;;;;;5073607;28;20019;-85
2021/07/08 09:03:26;;;;;;;9.23;3.17;;;21.20;93.80;;;;;;5074287;28;20028;-85
2021/07/08 09:06:08;;;;;;;8.20;3.45;;;21.10;93.80;;;;;;5089794;28;20020;-86
2021/07/08 09:08:35;;;;;;;5.38;2.95;;;21.10;94.00;;;;;;5089961;28;20017;-86
2021/07/08 09:11:01;;;;;;;5.50;2.85;;;21.10;93.60;;;;;;5073481;28;20521;-85
2021/07/08 09:13:28;;;;;;;5.88;3.20;;;21.10;93.40;;;;;;5072578;28;20123;-85
2021/07/08 09:15:53;;;;;;;6.00;3.40;;;21.10;93.40;;;;;;5089399;28;20029;-85
2021/07/08 09:18:25;;;;;;;7.50;3.60;;;21.10;93.80;;;;;;5089527;28;20127;-86
2021/07/08 09:20:50;;;;;;;7.88;3.10;;;21.20;93.30;;;;;;5071785;28;20060;-85
2021/07/08 09:23:18;;;;;;;5.88;2.90;;;21.20;93.10;;;;;;5089288;28;20059;-85
2021/07/08 09:25:46;;;;;;;4.80;2.70;;;21.20;93.60;;;;;;5073882;28;20017;-85
2021/07/08 09:28:23;;;;;;;4.47;2.90;;;21.10;93.30;;;;;;5073846;28;20123;-85
2021/07/08 09:31:15;;;;;;;5.18;2.78;;;21.10;93.40;;;;;;5073032;28;20269;-85
2021/07/08 09:33:41;;;;;;;6.88;2.92;;;21.10;93.80;;;;;;5070425;28;20041;-86
2021/07/08 09:36:09;;;;;;;6.40;3.80;;;21.10;93.80;;;;;;5088960;28;20029;-85
2021/07/08 09:38:36;;;;;;;9.18;3.60;;;21.20;93.30;;;;;;5088912;28;20043;-85
2021/07/08 09:41:16;;;;;;;6.68;2.83;;;21.30;92.30;;;;;;5071133;28;20538;-85
2021/07/08 09:43:43;;;;;;;7.72;3.47;;;21.30;92.20;;;;;;5088349;28;20048;-85
2021/07/08 09:46:10;;;;;;;7.00;3.88;;;21.40;92.30;;;;;;5089072;28;20447;-86
2021/07/08 09:48:37;;;;;;;7.05;3.70;;;21.50;92.30;;;;;;5088990;28;20032;-86
2021/07/08 09:51:03;;;;;;;5.82;3.45;;;21.60;91.90;;;;;;5088112;28;20547;-85
2021/07/08 09:53:30;;;;;;;7.38;3.45;;;21.60;91.70;;;;;;5088751;28;20035;-85
2021/07/08 09:59:08;;;;;;;5.93;2.95;;;21.70;90.60;;;;;;5073307;28;20078;-85
2021/07/08 10:01:34;;;;;;;5.72;2.78;;;21.70;90.50;;;;;;5050083;28;20025;-86
2021/07/08 10:04:00;;;;;;;6.32;3.50;;;21.70;91.00;;;;;;5088565;28;20047;-85
2021/07/08 10:06:27;;;;;;;4.75;3.17;;;21.80;90.60;;;;;;5072716;28;20564;-85
2021/07/08 10:08:53;;;;;;;5.88;3.17;;;21.80;90.80;;;;;;5072361;28;20112;-85
2021/07/08 10:11:19;;;;;;;5.60;3.10;;;21.80;90.90;;;;;;5088450;28;20515;-86
2021/07/08 10:13:45;;;;;;;7.88;3.00;;;21.80;91.10;;;;;;5071484;28;20115;-86
2021/07/08 10:16:13;;;;;;;6.22;3.30;;;21.80;91.40;;;;;;5088316;28;20124;-85
2021/07/08 10:18:41;;;;;;;6.80;3.85;;;21.90;91.80;;;;;;5088269;28;20528;-86
2021/07/08 10:21:08;;;;;;;6.65;3.10;;;21.90;91.50;;;;;;5072251;28;20047;-86
2021/07/08 10:23:35;;;;;;;9.18;3.45;;;22.00;90.60;;;;;;5088198;28;20024;-85
2021/07/08 10:26:07;;;;;;;6.80;3.10;;;22.00;90.60;;;;;;5071381;28;20036;-85
2021/07/08 10:28:35;;;;;;;5.80;3.15;;;22.10;90.30;;;;;;5088123;28;20025;-85
2021/07/08 10:31:02;;;;;;;4.22;2.97;;;22.10;90.00;;;;;;5087452;28;20077;-85
2021/07/08 10:33:28;;;;;;;6.10;3.20;;;22.10;89.80;;;;;;5087908;28;20489;-86
2021/07/08 10:35:54;;;;;;;5.95;3.20;;;22.10;90.10;;;;;;5087890;28;20025;-85
2021/07/08 10:38:40;;;;;;;7.25;3.30;;;22.20;90.30;;;;;;5088228;28;20035;-86
2021/07/08 10:41:11;;;;;;;10.30;3.55;;;22.20;90.70;;;;;;5087229;28;20020;-86
2021/07/08 10:43:43;;;;;;;6.93;3.72;;;22.30;90.40;;;;;;5071173;28;20052;-86
2021/07/08 10:46:11;;;;;;;5.97;3.30;;;22.30;90.50;;;;;;5070955;28;20119;-86
2021/07/08 10:48:43;;;;;;;7.22;3.38;;;22.30;90.60;;;;;;5072219;28;20025;-86
2021/07/08 10:51:27;;;;;;;7.10;3.42;;;22.40;89.50;;;;;;5087021;28;20123;-84
2021/07/08 10:53:56;;;;;;;8.00;3.75;;;22.40;89.80;;;;;;5071203;28;20035;-84
2021/07/08 10:56:31;;;;;;;6.00;3.08;;;22.40;90.00;;;;;;5089812;28;20032;-84
2021/07/08 10:58:56;;;;;;;8.10;3.30;;;22.40;89.60;;;;;;5088675;28;20024;-84
2021/07/08 11:01:22;;;;;;;8.50;2.85;;;22.40;90.00;;;;;;5089135;28;20024;-84
2021/07/08 11:03:58;;;;;;;8.60;3.22;;;22.40;89.60;;;;;;5071806;28;20024;-84
2021/07/08 11:06:36;;;;;;;7.20;3.40;;;22.50;89.20;;;;;;5071715;28;20028;-84
2021/07/08 11:09:06;;;;;;;6.45;2.92;;;22.50;88.30;;;;;;5087692;28;20029;-84
2021/07/08 11:11:35;;;;;;;5.65;2.80;;;22.50;88.90;;;;;;5088613;28;20024;-84
2021/07/08 11:14:06;;;;;;;7.07;2.70;;;22.50;88.20;;;;;;5071333;28;20024;-84
2021/07/08 11:16:49;;;;;;;5.80;2.80;;;22.50;88.30;;;;;;5071651;28;20025;-84
2021/07/08 11:19:34;;;;;;;8.50;3.03;;;22.50;89.10;;;;;;5114029;22;20048;-85
2021/07/08 11:22:16;;;;;;;7.57;2.90;;;22.60;88.80;;;;;;5070849;28;20056;-89
2021/07/08 11:24:51;;;;;;;4.75;2.80;;;22.60;88.20;;;;;;5071095;28;20021;-88
2021/07/08 11:27:23;;;;;;;7.15;2.97;;;22.70;88.60;;;;;;5070839;28;20657;-89
2021/07/08 11:29:50;;;;;;;4.00;2.72;;;22.70;87.40;;;;;;5070454;28;20028;-89
2021/07/08 11:32:44;;;;;;;5.10;2.90;;;22.70;87.60;;;;;;5070729;28;20039;-88
2021/07/08 11:35:19;;;;;;;5.72;3.00;;;22.80;87.50;;;;;;5071102;28;20503;-88
2021/07/08 11:38:17;;;;;;;5.85;2.85;;;22.80;88.00;;;;;;5070885;28;20029;-89
2021/07/08 11:40:49;;;;;;;8.43;3.08;;;22.80;88.60;;;;;;5070334;28;20496;-88
2021/07/08 11:43:23;;;;;;;4.93;2.47;;;22.70;88.60;;;;;;5071865;28;20031;-89
2021/07/08 11:45:52;;;;;;;5.70;2.25;;;22.80;86.40;;;;;;5073288;28;20032;-89
2021/07/08 11:48:32;;;;;;;5.72;2.70;;;22.90;85.50;;;;;;5070588;28;20035;-89
2021/07/08 11:51:00;;;;;;;5.18;2.25;;;22.90;84.60;;;;;;5070072;28;20123;-88
2021/07/08 11:53:26;;;;;;;5.22;2.70;;;22.90;85.20;;;;;;5070436;28;20037;-89
2021/07/08 11:55:59;;;;;;;6.65;2.55;;;23.00;85.70;;;;;;5071002;28;20427;-89
2021/07/08 11:58:30;;;;;;;6.20;3.03;;;23.00;84.70;;;;;;5070665;28;20110;-89
2021/07/08 12:01:01;;;;;;;7.65;2.83;;;23.10;84.90;;;;;;5071496;28;20021;-89
2021/07/08 12:03:31;;;;;;;7.97;2.70;;;23.10;84.20;;;;;;5070340;28;20020;-87
2021/07/08 12:06:11;;;;;;;8.25;3.08;;;23.20;84.60;;;;;;5074384;28;20028;-89
2021/07/08 12:08:42;;;;;;;6.85;3.15;;;23.20;84.50;;;;;;5074571;28;20389;-88
2021/07/08 12:11:17;;;;;;;6.70;2.50;;;23.10;82.70;;;;;;5073617;28;20024;-89
2021/07/08 12:13:54;;;;;;;6.28;2.88;;;23.10;83.10;;;;;;5074334;28;20046;-88
2021/07/08 12:16:35;;;;;;;4.25;2.33;;;23.10;84.60;;;;;;5074170;28;20028;-89
2021/07/08 12:19:06;;;;;;;6.88;2.60;;;23.20;83.70;;;;;;5074947;28;20089;-90
2021/07/08 12:21:40;;;;;;;5.93;2.58;;;23.20;82.70;;;;;;5075062;28;20033;-89
2021/07/08 12:24:09;;;;;;;7.40;2.85;;;23.20;82.90;;;;;;5073908;28;20086;-88
2021/07/08 12:26:34;;;;;;;;;;;23.20;83.30;;;;;;5074379;28;20025;-89
2021/07/08 12:29:24;;;;;;;6.45;2.78;;;23.20;83.00;;;;;;5073299;28;19912;-89
2021/07/08 12:31:53;;;;;;;9.40;3.22;;;23.20;82.20;;;;;;5073682;28;20027;-89
2021/07/08 12:34:34;;;;;;;6.07;3.30;;;23.20;80.60;;;;;;5075462;28;20035;-89
2021/07/08 12:37:21;;;;;;;6.60;3.00;;;23.20;82.20;;;;;;5073504;28;20028;-89
2021/07/08 12:39:55;;;;;;;7.72;2.92;;;23.20;82.20;;;;;;5073065;28;20347;-90
2021/07/08 12:42:23;;;;;;;6.03;2.83;;;23.20;82.10;;;;;;5073485;28;20035;-89
2021/07/08 12:44:51;;;;;;;7.25;3.10;;;23.20;82.40;;;;;;5074753;28;20031;-89
2021/07/08 12:47:18;;;;;;;6.47;3.00;;;23.20;82.00;;;;;;5073521;28;20031;-89
2021/07/08 12:49:46;;;;;;;4.13;2.30;;;23.10;83.00;;;;;;5073937;28;20032;-88
2021/07/08 12:52:13;;;;;;;9.45;3.08;;;23.10;83.30;;;;;;5074612;28;20493;-89
2021/07/08 12:54:39;;;;;;;7.05;3.20;;;23.10;83.70;;;;;;5073390;28;20044;-89